CSC3271 ZSPD-ZSJN
Flight info
| Callsign | CSC3271 |
|---|---|
| Flight time | 1h 13m |
| Altitude | 36100 |
| Route | PIK81D PIKAS G330 PIMOL A593 ABTUB ABTUB6W |
| Aircraft | A320/M-SDE3FGHIRWY/LB1 |
Departure
| Time | 2026-05-05 15:09 |
|---|---|
| Airport | Shanghai Pudong International Airport (ZSPD) |
Arrival
| Time | 2026-05-05 16:22 |
|---|---|
| Airport | Jinan Yaoqiang International Airport (ZSJN) |
| Time | Latitude | Longitude | Altitude | Speed | Heading |
|---|---|---|---|---|---|
| 2026-05-05 14:48 | 31.15138 | 121.79663 | 23 ft | 0 kts | 72° |
| 2026-05-05 14:57 | 31.15136 | 121.79658 | 23 ft | 2 kts | 72° |
| 2026-05-05 14:57 | 31.15131 | 121.79640 | 26 ft | 2 kts | 72° |
| 2026-05-05 14:58 | 31.15126 | 121.79621 | 24 ft | 2 kts | 72° |
| 2026-05-05 14:58 | 31.15121 | 121.79603 | 24 ft | 2 kts | 71° |
| 2026-05-05 14:58 | 31.15116 | 121.79585 | 25 ft | 2 kts | 70° |
| 2026-05-05 14:58 | 31.15110 | 121.79567 | 24 ft | 2 kts | 46° |
| 2026-05-05 14:59 | 31.15096 | 121.79555 | 25 ft | 2 kts | 19° |
| 2026-05-05 14:59 | 31.15080 | 121.79550 | 24 ft | 2 kts | 348° |
| 2026-05-05 14:59 | 31.15065 | 121.79555 | 25 ft | 2 kts | 351° |
| 2026-05-05 14:59 | 31.15053 | 121.79559 | 25 ft | 1 kts | 353° |
| 2026-05-05 15:00 | 31.15052 | 121.79560 | 25 ft | 0 kts | 352° |
| 2026-05-05 15:02 | 31.15056 | 121.79558 | 24 ft | 2 kts | 346° |
| 2026-05-05 15:02 | 31.15076 | 121.79551 | 24 ft | 4 kts | 345° |
| 2026-05-05 15:02 | 31.15110 | 121.79538 | 23 ft | 6 kts | 340° |
| 2026-05-05 15:03 | 31.15158 | 121.79519 | 24 ft | 8 kts | 342° |
| 2026-05-05 15:03 | 31.15204 | 121.79477 | 23 ft | 9 kts | 290° |
| 2026-05-05 15:03 | 31.15191 | 121.79396 | 23 ft | 11 kts | 252° |
| 2026-05-05 15:03 | 31.15164 | 121.79300 | 24 ft | 14 kts | 252° |
| 2026-05-05 15:04 | 31.15161 | 121.79190 | 23 ft | 14 kts | 320° |
| 2026-05-05 15:04 | 31.15259 | 121.79145 | 24 ft | 16 kts | 341° |
| 2026-05-05 15:04 | 31.15372 | 121.79101 | 23 ft | 18 kts | 342° |
| 2026-05-05 15:04 | 31.15501 | 121.79053 | 24 ft | 21 kts | 342° |
| 2026-05-05 15:05 | 31.15784 | 121.78947 | 23 ft | 0 kts | 342° |
| 2026-05-05 15:05 | 31.15791 | 121.78945 | 22 ft | 2 kts | 342° |
| 2026-05-05 15:05 | 31.15813 | 121.78936 | 22 ft | 4 kts | 341° |
| 2026-05-05 15:06 | 31.15848 | 121.78923 | 23 ft | 6 kts | 341° |
| 2026-05-05 15:06 | 31.15894 | 121.78905 | 23 ft | 8 kts | 342° |
| 2026-05-05 15:06 | 31.15949 | 121.78878 | 23 ft | 9 kts | 319° |
| 2026-05-05 15:06 | 31.15956 | 121.78805 | 23 ft | 11 kts | 253° |
| 2026-05-05 15:07 | 31.15923 | 121.78713 | 22 ft | 14 kts | 227° |
| 2026-05-05 15:07 | 31.15837 | 121.78708 | 23 ft | 14 kts | 161° |
| 2026-05-05 15:07 | 31.15737 | 121.78746 | 23 ft | 20 kts | 162° |
| 2026-05-05 15:07 | 31.15373 | 121.78881 | 21 ft | 88 kts | 161° |
| 2026-05-05 15:08 | 31.14614 | 121.79170 | 27 ft | 139 kts | 162° |
| 2026-05-05 15:08 | 31.13563 | 121.79561 | 67 ft | 175 kts | 162° |
| 2026-05-05 15:08 | 31.12337 | 121.80024 | 338 ft | 196 kts | 162° |
| 2026-05-05 15:08 | 31.10883 | 121.80539 | 274 ft | 242 kts | 163° |
| 2026-05-05 15:09 | 31.09212 | 121.81101 | 977 ft | 256 kts | 165° |
| 2026-05-05 15:09 | 31.07397 | 121.81704 | 1589 ft | 277 kts | 165° |
| 2026-05-05 15:09 | 31.05598 | 121.82303 | 3083 ft | 260 kts | 165° |
| 2026-05-05 15:09 | 31.03888 | 121.82875 | 4274 ft | 256 kts | 164° |
| 2026-05-05 15:10 | 31.02154 | 121.83457 | 5147 ft | 263 kts | 165° |
| 2026-05-05 15:10 | 31.00309 | 121.83644 | 5720 ft | 272 kts | 191° |
| 2026-05-05 15:10 | 30.98648 | 121.82697 | 5864 ft | 273 kts | 224° |
| 2026-05-05 15:10 | 30.97642 | 121.80815 | 5892 ft | 273 kts | 250° |
| 2026-05-05 15:11 | 30.97159 | 121.78698 | 5893 ft | 274 kts | 258° |
| 2026-05-05 15:11 | 30.96818 | 121.76513 | 5887 ft | 274 kts | 259° |
| 2026-05-05 15:11 | 30.96462 | 121.74330 | 5897 ft | 274 kts | 258° |
| 2026-05-05 15:11 | 30.96204 | 121.72133 | 5891 ft | 274 kts | 270° |
| 2026-05-05 15:12 | 30.96504 | 121.69918 | 6189 ft | 281 kts | 285° |
| 2026-05-05 15:12 | 30.96983 | 121.67720 | 7155 ft | 280 kts | 282° |
| 2026-05-05 15:12 | 30.97404 | 121.65498 | 8047 ft | 282 kts | 281° |
| 2026-05-05 15:12 | 30.97804 | 121.63247 | 8918 ft | 285 kts | 281° |
| 2026-05-05 15:13 | 30.98204 | 121.60969 | 9742 ft | 289 kts | 281° |
| 2026-05-05 15:13 | 30.98615 | 121.58643 | 10338 ft | 302 kts | 281° |
| 2026-05-05 15:13 | 30.99061 | 121.56157 | 10568 ft | 325 kts | 281° |
| 2026-05-05 15:13 | 30.99545 | 121.53483 | 10745 ft | 348 kts | 281° |
| 2026-05-05 15:14 | 31.00063 | 121.50638 | 10867 ft | 370 kts | 281° |
| 2026-05-05 15:14 | 31.00610 | 121.47636 | 11183 ft | 384 kts | 281° |
| 2026-05-05 15:14 | 31.01174 | 121.44571 | 11789 ft | 388 kts | 282° |
| 2026-05-05 15:14 | 31.01745 | 121.41483 | 12463 ft | 391 kts | 282° |
| 2026-05-05 15:15 | 31.02311 | 121.38417 | 13115 ft | 393 kts | 282° |
| 2026-05-05 15:15 | 31.02887 | 121.35283 | 13750 ft | 396 kts | 282° |
| 2026-05-05 15:15 | 31.03426 | 121.32354 | 14261 ft | 399 kts | 282° |
| 2026-05-05 15:15 | 31.04010 | 121.29178 | 14823 ft | 402 kts | 282° |
| 2026-05-05 15:16 | 31.04592 | 121.25984 | 15377 ft | 404 kts | 282° |
| 2026-05-05 15:16 | 31.05177 | 121.22769 | 15920 ft | 407 kts | 282° |
| 2026-05-05 15:16 | 31.06021 | 121.19615 | 16452 ft | 409 kts | 295° |
| 2026-05-05 15:16 | 31.07527 | 121.16792 | 16990 ft | 413 kts | 309° |
| 2026-05-05 15:17 | 31.09627 | 121.14504 | 17541 ft | 416 kts | 324° |
| 2026-05-05 15:17 | 31.12188 | 121.12917 | 18082 ft | 421 kts | 338° |
| 2026-05-05 15:17 | 31.15098 | 121.12148 | 18600 ft | 427 kts | 353° |
| 2026-05-05 15:17 | 31.18034 | 121.11963 | 19080 ft | 429 kts | 355° |
| 2026-05-05 15:18 | 31.21028 | 121.11801 | 19565 ft | 432 kts | 355° |
| 2026-05-05 15:18 | 31.24040 | 121.11638 | 20037 ft | 434 kts | 355° |
| 2026-05-05 15:18 | 31.26081 | 121.11525 | 20352 ft | 436 kts | 355° |
| 2026-05-05 15:18 | 31.29117 | 121.11354 | 20804 ft | 438 kts | 355° |
| 2026-05-05 15:19 | 31.32169 | 121.11181 | 21236 ft | 440 kts | 355° |
| 2026-05-05 15:19 | 31.35233 | 121.11039 | 21653 ft | 443 kts | 358° |
| 2026-05-05 15:19 | 31.38282 | 121.11209 | 22043 ft | 445 kts | 1° |
| 2026-05-05 15:19 | 31.41386 | 121.11383 | 22436 ft | 446 kts | 358° |
| 2026-05-05 15:20 | 31.44479 | 121.11097 | 22812 ft | 446 kts | 349° |
| 2026-05-05 15:20 | 31.47492 | 121.10227 | 23192 ft | 446 kts | 340° |
| 2026-05-05 15:20 | 31.50396 | 121.08810 | 23568 ft | 447 kts | 334° |
| 2026-05-05 15:20 | 31.53193 | 121.07309 | 23886 ft | 449 kts | 334° |
| 2026-05-05 15:21 | 31.56044 | 121.05792 | 24213 ft | 451 kts | 335° |
| 2026-05-05 15:21 | 31.58898 | 121.04280 | 24639 ft | 450 kts | 335° |
| 2026-05-05 15:21 | 31.61748 | 121.02768 | 25129 ft | 448 kts | 335° |
| 2026-05-05 15:21 | 31.64581 | 121.01261 | 25619 ft | 446 kts | 335° |
| 2026-05-05 15:22 | 31.67405 | 120.99758 | 26097 ft | 445 kts | 335° |
| 2026-05-05 15:22 | 31.70219 | 120.98262 | 26586 ft | 443 kts | 335° |
| 2026-05-05 15:22 | 31.73022 | 120.96770 | 27094 ft | 442 kts | 335° |
| 2026-05-05 15:22 | 31.75817 | 120.95279 | 27618 ft | 440 kts | 335° |
| 2026-05-05 15:23 | 31.78598 | 120.93792 | 28137 ft | 438 kts | 335° |
| 2026-05-05 15:23 | 31.81374 | 120.92309 | 28668 ft | 437 kts | 336° |
| 2026-05-05 15:23 | 31.84135 | 120.90832 | 29194 ft | 435 kts | 336° |
| 2026-05-05 15:23 | 31.86879 | 120.89363 | 29739 ft | 433 kts | 336° |
| 2026-05-05 15:24 | 31.89586 | 120.87913 | 30239 ft | 431 kts | 336° |
| 2026-05-05 15:24 | 31.92309 | 120.86452 | 30678 ft | 430 kts | 336° |
| 2026-05-05 15:24 | 31.95032 | 120.84991 | 31117 ft | 429 kts | 335° |
| 2026-05-05 15:24 | 31.97749 | 120.83536 | 31529 ft | 428 kts | 335° |
| 2026-05-05 15:25 | 32.00459 | 120.82080 | 31951 ft | 428 kts | 335° |
| 2026-05-05 15:25 | 32.03160 | 120.80623 | 32381 ft | 427 kts | 335° |
| 2026-05-05 15:25 | 32.05859 | 120.79164 | 32822 ft | 426 kts | 335° |
| 2026-05-05 15:25 | 32.08545 | 120.77697 | 33258 ft | 425 kts | 332° |
| 2026-05-05 15:26 | 32.10950 | 120.75709 | 33676 ft | 424 kts | 315° |
| 2026-05-05 15:26 | 32.12696 | 120.72925 | 34081 ft | 425 kts | 297° |
| 2026-05-05 15:26 | 32.13598 | 120.69610 | 34429 ft | 428 kts | 279° |
| 2026-05-05 15:26 | 32.13550 | 120.66097 | 34762 ft | 434 kts | 261° |
| 2026-05-05 15:27 | 32.12534 | 120.62732 | 35088 ft | 441 kts | 243° |
| 2026-05-05 15:27 | 32.10607 | 120.59894 | 35404 ft | 449 kts | 224° |
| 2026-05-05 15:27 | 32.07945 | 120.57936 | 35717 ft | 457 kts | 204° |
| 2026-05-05 15:27 | 32.04823 | 120.57141 | 36002 ft | 466 kts | 184° |
| 2026-05-05 15:28 | 32.01593 | 120.57636 | 36086 ft | 476 kts | 163° |
| 2026-05-05 15:28 | 31.98622 | 120.59422 | 36101 ft | 486 kts | 142° |
| 2026-05-05 15:28 | 31.96285 | 120.62314 | 36104 ft | 492 kts | 122° |
| 2026-05-05 15:28 | 31.94797 | 120.65934 | 36108 ft | 494 kts | 109° |
| 2026-05-05 15:29 | 31.93781 | 120.69804 | 36104 ft | 495 kts | 103° |
| 2026-05-05 15:29 | 31.92367 | 120.77730 | 36108 ft | 495 kts | 99° |
| 2026-05-05 15:29 | 31.91545 | 120.81668 | 36104 ft | 496 kts | 110° |
| 2026-05-05 15:30 | 31.89953 | 120.85254 | 36111 ft | 496 kts | 127° |
| 2026-05-05 15:30 | 31.87607 | 120.88204 | 36112 ft | 493 kts | 143° |
| 2026-05-05 15:30 | 31.84746 | 120.90390 | 36108 ft | 489 kts | 156° |
| 2026-05-05 15:31 | 31.78585 | 120.93643 | 36105 ft | 489 kts | 158° |
| 2026-05-05 15:31 | 31.72391 | 120.96953 | 36109 ft | 489 kts | 158° |
| 2026-05-05 15:32 | 31.66203 | 121.00301 | 36123 ft | 489 kts | 158° |
| 2026-05-05 15:32 | 31.60021 | 121.03637 | 36123 ft | 488 kts | 158° |
| 2026-05-05 15:33 | 31.53849 | 121.06944 | 36127 ft | 488 kts | 158° |
| 2026-05-05 15:33 | 31.47705 | 121.10305 | 36130 ft | 489 kts | 154° |
| 2026-05-05 15:34 | 31.42290 | 121.15137 | 36132 ft | 494 kts | 135° |
| 2026-05-05 15:34 | 31.37658 | 121.21097 | 36138 ft | 494 kts | 135° |
| 2026-05-05 15:35 | 31.33004 | 121.27006 | 36140 ft | 493 kts | 139° |
| 2026-05-05 15:35 | 31.30256 | 121.29309 | 36134 ft | 482 kts | 159° |
| 2026-05-05 15:35 | 31.27096 | 121.30376 | 36126 ft | 468 kts | 179° |
| 2026-05-05 15:35 | 31.23909 | 121.30118 | 36118 ft | 455 kts | 200° |
| 2026-05-05 15:36 | 31.21090 | 121.28604 | 36109 ft | 442 kts | 220° |
| 2026-05-05 15:36 | 31.19018 | 121.26111 | 36098 ft | 432 kts | 240° |
| 2026-05-05 15:36 | 31.17887 | 121.22909 | 36095 ft | 426 kts | 261° |
| 2026-05-05 15:36 | 31.17871 | 121.19471 | 36090 ft | 425 kts | 281° |
| 2026-05-05 15:37 | 31.18839 | 121.16219 | 36089 ft | 428 kts | 297° |
| 2026-05-05 15:37 | 31.22126 | 121.10370 | 36092 ft | 433 kts | 302° |
| 2026-05-05 15:38 | 31.31916 | 120.93446 | 36102 ft | 440 kts | 302° |
| 2026-05-05 15:38 | 31.45612 | 120.69630 | 36119 ft | 441 kts | 303° |
| 2026-05-05 15:39 | 31.59227 | 120.45799 | 36117 ft | 439 kts | 303° |
| 2026-05-05 15:39 | 31.72722 | 120.22009 | 36104 ft | 436 kts | 304° |
| 2026-05-05 15:39 | 31.81875 | 120.12805 | 36089 ft | 436 kts | 323° |
| 2026-05-05 15:40 | 31.91668 | 120.04335 | 36091 ft | 437 kts | 323° |
| 2026-05-05 15:40 | 32.11267 | 119.87519 | 36095 ft | 436 kts | 324° |
| 2026-05-05 15:41 | 32.30920 | 119.70772 | 36090 ft | 433 kts | 325° |
| 2026-05-05 15:41 | 32.50376 | 119.54138 | 36083 ft | 430 kts | 325° |
| 2026-05-05 15:42 | 32.69685 | 119.37398 | 36074 ft | 429 kts | 325° |
| 2026-05-05 15:42 | 32.88915 | 119.20664 | 36065 ft | 427 kts | 325° |
| 2026-05-05 15:43 | 33.07981 | 119.04183 | 36062 ft | 425 kts | 325° |
| 2026-05-05 15:43 | 33.27052 | 118.87648 | 36060 ft | 423 kts | 325° |
| 2026-05-05 15:44 | 33.46039 | 118.71164 | 36052 ft | 420 kts | 325° |
| 2026-05-05 15:44 | 33.64888 | 118.54794 | 36055 ft | 417 kts | 325° |
| 2026-05-05 15:45 | 33.83550 | 118.38521 | 36048 ft | 412 kts | 326° |
| 2026-05-05 15:45 | 34.02026 | 118.22325 | 36040 ft | 408 kts | 326° |
| 2026-05-05 15:46 | 34.20388 | 118.06349 | 36038 ft | 405 kts | 326° |
| 2026-05-05 15:46 | 34.29845 | 117.99070 | 36002 ft | 401 kts | 342° |
| 2026-05-05 15:46 | 34.33276 | 117.97927 | 36018 ft | 400 kts | 344° |
| 2026-05-05 15:47 | 34.38588 | 117.96077 | 36024 ft | 400 kts | 343° |
| 2026-05-05 15:47 | 34.43908 | 117.94131 | 36023 ft | 399 kts | 342° |
| 2026-05-05 15:48 | 34.49216 | 117.92194 | 36030 ft | 398 kts | 343° |
| 2026-05-05 15:48 | 34.54533 | 117.90288 | 36030 ft | 398 kts | 343° |
| 2026-05-05 15:49 | 34.59846 | 117.88399 | 36029 ft | 397 kts | 343° |
| 2026-05-05 15:49 | 34.65140 | 117.86500 | 36031 ft | 397 kts | 343° |
| 2026-05-05 15:50 | 34.70429 | 117.84601 | 36030 ft | 396 kts | 343° |
| 2026-05-05 15:50 | 34.75711 | 117.82695 | 36029 ft | 396 kts | 343° |
| 2026-05-05 15:51 | 34.80989 | 117.80788 | 36032 ft | 395 kts | 343° |
| 2026-05-05 15:51 | 34.86214 | 117.78886 | 36031 ft | 394 kts | 342° |
| 2026-05-05 15:52 | 34.91461 | 117.76960 | 36030 ft | 393 kts | 342° |
| 2026-05-05 15:52 | 34.96701 | 117.75039 | 36030 ft | 393 kts | 343° |
| 2026-05-05 15:53 | 35.01937 | 117.73121 | 36032 ft | 392 kts | 342° |
| 2026-05-05 15:53 | 35.07172 | 117.71208 | 36024 ft | 392 kts | 342° |
| 2026-05-05 15:54 | 35.12391 | 117.69299 | 36023 ft | 391 kts | 342° |
| 2026-05-05 15:54 | 35.17605 | 117.67395 | 36022 ft | 391 kts | 342° |
| 2026-05-05 15:55 | 35.22814 | 117.65480 | 36018 ft | 391 kts | 342° |
| 2026-05-05 15:55 | 35.28014 | 117.63565 | 36011 ft | 390 kts | 342° |
| 2026-05-05 15:56 | 35.33224 | 117.61645 | 36007 ft | 390 kts | 342° |
| 2026-05-05 15:56 | 35.38417 | 117.59720 | 36009 ft | 390 kts | 342° |
| 2026-05-05 15:57 | 35.43585 | 117.57809 | 36006 ft | 390 kts | 342° |
| 2026-05-05 15:57 | 35.48774 | 117.55894 | 36002 ft | 389 kts | 342° |
| 2026-05-05 15:58 | 35.53965 | 117.53970 | 35998 ft | 389 kts | 342° |
| 2026-05-05 15:58 | 35.59147 | 117.52047 | 35996 ft | 389 kts | 342° |
| 2026-05-05 15:59 | 35.64329 | 117.50120 | 35994 ft | 389 kts | 342° |
| 2026-05-05 15:59 | 35.69500 | 117.48192 | 35991 ft | 389 kts | 342° |
| 2026-05-05 16:00 | 35.74679 | 117.46264 | 35986 ft | 388 kts | 342° |
| 2026-05-05 16:00 | 35.79840 | 117.44333 | 35979 ft | 386 kts | 341° |
| 2026-05-05 16:00 | 35.82364 | 117.43387 | 35961 ft | 372 kts | 341° |
| 2026-05-05 16:01 | 35.84797 | 117.42480 | 35962 ft | 358 kts | 341° |
| 2026-05-05 16:01 | 35.87113 | 117.41619 | 35964 ft | 345 kts | 341° |
| 2026-05-05 16:01 | 35.89367 | 117.40781 | 35965 ft | 332 kts | 341° |
| 2026-05-05 16:01 | 35.91538 | 117.39973 | 35967 ft | 320 kts | 341° |
| 2026-05-05 16:02 | 35.93651 | 117.39183 | 35963 ft | 316 kts | 341° |
| 2026-05-05 16:02 | 35.97842 | 117.37610 | 35965 ft | 314 kts | 341° |
| 2026-05-05 16:03 | 36.02165 | 117.36768 | 35958 ft | 319 kts | 355° |
| 2026-05-05 16:03 | 36.04397 | 117.36782 | 35706 ft | 323 kts | 355° |
| 2026-05-05 16:03 | 36.06663 | 117.36787 | 35090 ft | 329 kts | 355° |
| 2026-05-05 16:03 | 36.08978 | 117.36783 | 34386 ft | 336 kts | 355° |
| 2026-05-05 16:04 | 36.11346 | 117.36774 | 33590 ft | 346 kts | 355° |
| 2026-05-05 16:04 | 36.13783 | 117.36770 | 32754 ft | 353 kts | 355° |
| 2026-05-05 16:04 | 36.16265 | 117.36768 | 31906 ft | 361 kts | 355° |
| 2026-05-05 16:04 | 36.18813 | 117.36769 | 31031 ft | 371 kts | 355° |
| 2026-05-05 16:05 | 36.20538 | 117.36771 | 30471 ft | 376 kts | 355° |
| 2026-05-05 16:05 | 36.23186 | 117.36775 | 29471 ft | 386 kts | 356° |
| 2026-05-05 16:05 | 36.25908 | 117.36776 | 28357 ft | 397 kts | 356° |
| 2026-05-05 16:05 | 36.28704 | 117.36776 | 27257 ft | 406 kts | 356° |
| 2026-05-05 16:06 | 36.31563 | 117.36779 | 26168 ft | 415 kts | 356° |
| 2026-05-05 16:06 | 36.34481 | 117.36783 | 25092 ft | 423 kts | 356° |
| 2026-05-05 16:06 | 36.37451 | 117.36788 | 24040 ft | 431 kts | 357° |
| 2026-05-05 16:06 | 36.40475 | 117.36792 | 22918 ft | 438 kts | 357° |
| 2026-05-05 16:07 | 36.43548 | 117.36795 | 21682 ft | 444 kts | 357° |
| 2026-05-05 16:07 | 36.46650 | 117.36796 | 20502 ft | 448 kts | 357° |
| 2026-05-05 16:07 | 36.50796 | 117.36800 | 19118 ft | 450 kts | 357° |
| 2026-05-05 16:07 | 36.52909 | 117.36801 | 18447 ft | 449 kts | 357° |
| 2026-05-05 16:08 | 36.55993 | 117.36802 | 17388 ft | 448 kts | 357° |
| 2026-05-05 16:08 | 36.59098 | 117.36806 | 16402 ft | 444 kts | 357° |
| 2026-05-05 16:08 | 36.62171 | 117.36814 | 15533 ft | 438 kts | 358° |
| 2026-05-05 16:08 | 36.65197 | 117.36823 | 14691 ft | 432 kts | 358° |
| 2026-05-05 16:09 | 36.68186 | 117.36830 | 13874 ft | 427 kts | 358° |
| 2026-05-05 16:09 | 36.71147 | 117.36837 | 13029 ft | 423 kts | 358° |
| 2026-05-05 16:09 | 36.74070 | 117.36844 | 12210 ft | 418 kts | 358° |
| 2026-05-05 16:09 | 36.76963 | 117.36850 | 11456 ft | 413 kts | 358° |
| 2026-05-05 16:10 | 36.79790 | 117.36858 | 11123 ft | 398 kts | 359° |
| 2026-05-05 16:10 | 36.82485 | 117.36871 | 10970 ft | 378 kts | 359° |
| 2026-05-05 16:10 | 36.85054 | 117.36881 | 10801 ft | 361 kts | 359° |
| 2026-05-05 16:10 | 36.87511 | 117.36886 | 10648 ft | 345 kts | 358° |
| 2026-05-05 16:11 | 36.89863 | 117.36886 | 10497 ft | 332 kts | 358° |
| 2026-05-05 16:11 | 36.96448 | 117.36889 | 10122 ft | 298 kts | 358° |
| 2026-05-05 16:12 | 36.98481 | 117.36890 | 10060 ft | 286 kts | 358° |
| 2026-05-05 16:12 | 37.02333 | 117.36891 | 9645 ft | 276 kts | 358° |
| 2026-05-05 16:13 | 37.08531 | 117.36871 | 7873 ft | 301 kts | 352° |
| 2026-05-05 16:13 | 37.10434 | 117.36072 | 7706 ft | 280 kts | 320° |
| 2026-05-05 16:13 | 37.11627 | 117.34315 | 7371 ft | 261 kts | 290° |
| 2026-05-05 16:14 | 37.11917 | 117.29935 | 6317 ft | 252 kts | 266° |
| 2026-05-05 16:14 | 37.11902 | 117.25616 | 5295 ft | 246 kts | 265° |
| 2026-05-05 16:15 | 37.10514 | 117.22114 | 4356 ft | 229 kts | 211° |
| 2026-05-05 16:15 | 37.07420 | 117.21736 | 3613 ft | 219 kts | 184° |
| 2026-05-05 16:16 | 37.04689 | 117.21745 | 3494 ft | 176 kts | 187° |
| 2026-05-05 16:16 | 37.02355 | 117.21685 | 3070 ft | 159 kts | 189° |
| 2026-05-05 16:17 | 37.00283 | 117.21621 | 2564 ft | 137 kts | 187° |
| 2026-05-05 16:17 | 36.99345 | 117.21612 | 2374 ft | 133 kts | 186° |
| 2026-05-05 16:18 | 36.97512 | 117.21604 | 2033 ft | 131 kts | 186° |
| 2026-05-05 16:18 | 36.96600 | 117.21602 | 1843 ft | 131 kts | 185° |
| 2026-05-05 16:18 | 36.94784 | 117.21602 | 1504 ft | 131 kts | 185° |
| 2026-05-05 16:19 | 36.93865 | 117.21601 | 1327 ft | 131 kts | 185° |
| 2026-05-05 16:19 | 36.92960 | 117.21601 | 1157 ft | 132 kts | 184° |
| 2026-05-05 16:19 | 36.91116 | 117.21601 | 803 ft | 131 kts | 181° |
| 2026-05-05 16:20 | 36.89289 | 117.21601 | 490 ft | 131 kts | 180° |
| 2026-05-05 16:20 | 36.87475 | 117.21600 | 194 ft | 131 kts | 180° |
| 2026-05-05 16:21 | 36.85858 | 117.21601 | 89 ft | 77 kts | 180° |
| 2026-05-05 16:22 | 36.85042 | 117.21492 | 87 ft | 0 kts | 210° |
| 2026-05-05 16:22 | 36.84990 | 117.21406 | 80 ft | 13 kts | 285° |
| 2026-05-05 16:23 | 36.85137 | 117.21292 | 81 ft | 15 kts | 269° |
| 2026-05-05 16:23 | 36.85139 | 117.21146 | 80 ft | 18 kts | 270° |
| 2026-05-05 16:23 | 36.85142 | 117.20897 | 80 ft | 0 kts | 269° |
| 2026-05-05 16:24 | 36.85142 | 117.20886 | 80 ft | 0 kts | 270° |